Finlandia — OJPP — position and weather

sailwx.info

Track history (hours):
 
Tides and Currents Weather Stations Pressure Air Temp Water Temp Dewpoint Dewpoint Depression Visibility Wind Speed Wind Dir Waves Ship Positions

Finlandia

Last reported at 2017-May-26 23:57 UTC. Time now 2017-May-27 06:14 UTC.
Position N 59°36' E 024°41'.

Length 175 m; draft 7 m.

Type: Ship (hazmat cat A). MMSI: 230628000.

Date/timePositionNaut miles runAvg speedWind from/ knotsBaromVisibWave heightAir tempDewpointWater temp
2017-May-26 23:57N 59°36' E 024°41'4 9.5
2017-May-26 23:30N 59°32' E 024°44'5 2.9
2017-May-26 21:38N 59°27' E 024°47'215.9
2017-May-26 21:30N 59°29' E 024°46'7 1.3
2017-May-26 16:13N 59°36' E 024°41'520.6
2017-May-26 15:57N 59°31' E 024°45'3 1.9
2017-May-26 14:29N 59°28' E 024°46'9 1.7
2017-May-26 09:27N 59°36' E 024°41'9 4.9
2017-May-26 07:41N 59°28' E 024°46'418.9
2017-May-26 07:30N 59°31' E 024°44'8 1.1
2017-May-26 00:29N 59°39' E 024°41'10 8.1
2017-May-25 23:18N 59°30' E 024°46'2 6.6
2017-May-25 23:00N 59°28' E 024°46'1 0.4
2017-May-25 21:26N 59°28' E 024°46'8 1.7
2017-May-25 16:34N 59°36' E 024°41'724.5
2017-May-25 16:18N 59°30' E 024°46'2 1.3
2017-May-25 14:38N 59°28' E 024°47'322.6
2017-May-25 14:30N 59°31' E 024°44'1 0.2
2017-May-25 09:23N 59°31' E 024°45'3 1.5
2017-May-25 07:39N 59°29' E 024°46'321.3
2017-May-25 07:30N 59°32' E 024°43'1520.6
2017-May-25 06:47N 59°46' E 024°45'1021.6
2017-May-25 06:20N 59°55' E 024°52'12 4.1
2017-May-25 03:22N 60°08' E 024°54'514.3
2017-May-25 03:00N 60°02' E 024°54'610.5
2017-May-25 02:28N 59°57' E 024°53'9 8.6
2017-May-25 01:25N 59°48' E 024°49'17 7.9
2017-May-24 23:15N 59°31' E 024°45'3 1.7
2017-May-24 21:30N 59°28' E 024°46'8 1.5
2017-May-24 16:09N 59°35' E 024°41'321.0
2017-May-24 15:59N 59°32' E 024°44'4 2.8
2017-May-24 14:29N 59°28' E 024°46'3 0.5
2017-May-24 09:17N 59°31' E 024°45'3 1.8
2017-May-24 07:41N 59°28' E 024°46'319.8
2017-May-24 07:30N 59°31' E 024°43'5 0.3
2017-May-23 16:25N 59°36' E 024°41'8 4.1
2017-May-23 14:27N 59°28' E 024°46'3 0.6
2017-May-23 09:22N 59°31' E 024°45'1 0.8
2017-May-23 07:35N 59°30' E 024°45'219.3
2017-May-23 07:30N 59°31' E 024°44'5 0.3
2017-May-22 16:20N 59°36' E 024°41'4 1.7
2017-May-22 13:54N 59°40' E 024°43'4 1.0
2017-May-22 09:33N 59°36' E 024°41'620.9
2017-May-22 09:15N 59°30' E 024°45'2 1.2
2017-May-22 07:40N 59°28' E 024°46'319.3
2017-May-22 07:30N 59°31' E 024°44'1018.4
2017-May-22 06:56N 59°42' E 024°45'1720.0
2017-May-22 06:04N 59°58' E 024°54'120.4
2017-May-22 06:00N 59°60' E 024°54'29 2.0
2017-May-21 16:00N 59°31' E 024°44'3 2.0
2017-May-21 14:24N 59°28' E 024°46'3 0.6
2017-May-21 09:17N 59°31' E 024°45'4 2.9
2017-May-21 07:47N 59°27' E 024°47'516.7
2017-May-21 07:29N 59°32' E 024°43'1 0.0
2017-May-20 16:06N 59°32' E 024°44'3 1.9
2017-May-20 14:25N 59°29' E 024°45'2 0.3
2017-May-20 07:47N 59°27' E 024°47'26 4.9
2017-May-20 02:26N 59°53' E 024°50'23 7.6
2017-May-19 23:29N 59°31' E 024°45'3 1.5
2017-May-19 21:31N 59°28' E 024°46'018.1
2017-May-19 21:30N 59°28' E 024°46'17 3.7
2017-May-19 16:50N 59°45' E 024°48'721.1
2017-May-19 16:30N 59°39' E 024°43'12 6.4
2017-May-19 14:37N 59°27' E 024°47'216.4
2017-May-19 14:30N 59°29' E 024°45'3122.8
2017-May-19 13:07N 60°00' E 024°54'1 0.3
2017-May-19 10:45N 60°01' E 024°55'520.6
2017-May-19 10:30N 59°56' E 024°52'1220.4
2017-May-19 09:55N 59°44' E 024°49'1119.6
2017-May-19 09:22N 59°33' E 024°43'7 4.4
2017-May-19 07:52N 59°27' E 024°46'615.2
2017-May-19 07:30N 59°32' E 024°43'919.1
2017-May-19 07:00N 59°41' E 024°42'1020.4
2017-May-19 06:30N 59°51' E 024°48'1419.7
2017-May-19 05:49N 60°04' E 024°54'3 1.4
2017-May-19 03:23N 60°08' E 024°54'613.5
2017-May-19 02:56N 60°02' E 024°54'713.5
2017-May-19 02:26N 59°55' E 024°53'6 9.7
2017-May-19 01:49N 59°49' E 024°51'18 7.7
2017-May-18 23:25N 59°31' E 024°45'4 2.5
2017-May-18 21:41N 59°27' E 024°46'212.2
2017-May-18 21:30N 59°29' E 024°45'3 0.6
2017-May-18 16:28N 59°32' E 024°44'5 3.3
2017-May-18 14:58N 59°27' E 024°47'4 0.3
2017-May-17 23:29N 59°31' E 024°45'5 2.5
2017-May-17 21:39N 59°27' E 024°47'213.9
2017-May-17 21:29N 59°29' E 024°45'2 0.5
2017-May-17 16:31N 59°31' E 024°45'021.6
2017-May-17 16:30N 59°31' E 024°45'4 2.7
2017-May-17 14:50N 59°27' E 024°46'818.7
2017-May-17 14:25N 59°34' E 024°41'26 3.1
2017-May-17 06:09N 59°59' E 024°54'  
Track history (hours):
 
Tides and Currents Weather Stations Pressure Air Temp Water Temp Dewpoint Dewpoint Depression Visibility Wind Speed Wind Dir Waves Ship Positions

Finlandia

Last reported at 2017-May-26 23:57 UTC. Time now 2017-May-27 06:14 UTC.
Position N 59°36' E 024°41'.

Length 175 m; draft 7 m.

Type: Ship (hazmat cat A). MMSI: 230628000.

Date/timePositionNaut miles runAvg speedWind from/ knotsBaromVisibWave heightAir tempDewpointWater temp
2017-May-26 23:57N 59°36' E 024°41'4 9.5
2017-May-26 23:30N 59°32' E 024°44'5 2.9
2017-May-26 21:38N 59°27' E 024°47'215.9
2017-May-26 21:30N 59°29' E 024°46'7 1.3
2017-May-26 16:13N 59°36' E 024°41'520.6
2017-May-26 15:57N 59°31' E 024°45'3 1.9
2017-May-26 14:29N 59°28' E 024°46'9 1.7
2017-May-26 09:27N 59°36' E 024°41'9 4.9
2017-May-26 07:41N 59°28' E 024°46'418.9
2017-May-26 07:30N 59°31' E 024°44'8 1.1
2017-May-26 00:29N 59°39' E 024°41'10 8.1
2017-May-25 23:18N 59°30' E 024°46'2 6.6
2017-May-25 23:00N 59°28' E 024°46'1 0.4
2017-May-25 21:26N 59°28' E 024°46'8 1.7
2017-May-25 16:34N 59°36' E 024°41'724.5
2017-May-25 16:18N 59°30' E 024°46'2 1.3
2017-May-25 14:38N 59°28' E 024°47'322.6
2017-May-25 14:30N 59°31' E 024°44'1 0.2
2017-May-25 09:23N 59°31' E 024°45'3 1.5
2017-May-25 07:39N 59°29' E 024°46'321.3
2017-May-25 07:30N 59°32' E 024°43'1520.6
2017-May-25 06:47N 59°46' E 024°45'1021.6
2017-May-25 06:20N 59°55' E 024°52'12 4.1
2017-May-25 03:22N 60°08' E 024°54'514.3
2017-May-25 03:00N 60°02' E 024°54'610.5
2017-May-25 02:28N 59°57' E 024°53'9 8.6
2017-May-25 01:25N 59°48' E 024°49'17 7.9
2017-May-24 23:15N 59°31' E 024°45'3 1.7
2017-May-24 21:30N 59°28' E 024°46'8 1.5
2017-May-24 16:09N 59°35' E 024°41'321.0
2017-May-24 15:59N 59°32' E 024°44'4 2.8
2017-May-24 14:29N 59°28' E 024°46'3 0.5
2017-May-24 09:17N 59°31' E 024°45'3 1.8
2017-May-24 07:41N 59°28' E 024°46'319.8
2017-May-24 07:30N 59°31' E 024°43'5 0.3
2017-May-23 16:25N 59°36' E 024°41'8 4.1
2017-May-23 14:27N 59°28' E 024°46'3 0.6
2017-May-23 09:22N 59°31' E 024°45'1 0.8
2017-May-23 07:35N 59°30' E 024°45'219.3
2017-May-23 07:30N 59°31' E 024°44'5 0.3
2017-May-22 16:20N 59°36' E 024°41'4 1.7
2017-May-22 13:54N 59°40' E 024°43'4 1.0
2017-May-22 09:33N 59°36' E 024°41'620.9
2017-May-22 09:15N 59°30' E 024°45'2 1.2
2017-May-22 07:40N 59°28' E 024°46'319.3
2017-May-22 07:30N 59°31' E 024°44'1018.4
2017-May-22 06:56N 59°42' E 024°45'1720.0
2017-May-22 06:04N 59°58' E 024°54'120.4
2017-May-22 06:00N 59°60' E 024°54'29 2.0
2017-May-21 16:00N 59°31' E 024°44'3 2.0
2017-May-21 14:24N 59°28' E 024°46'3 0.6
2017-May-21 09:17N 59°31' E 024°45'4 2.9
2017-May-21 07:47N 59°27' E 024°47'516.7
2017-May-21 07:29N 59°32' E 024°43'1 0.0
2017-May-20 16:06N 59°32' E 024°44'3 1.9
2017-May-20 14:25N 59°29' E 024°45'2 0.3
2017-May-20 07:47N 59°27' E 024°47'26 4.9
2017-May-20 02:26N 59°53' E 024°50'23 7.6
2017-May-19 23:29N 59°31' E 024°45'3 1.5
2017-May-19 21:31N 59°28' E 024°46'018.1
2017-May-19 21:30N 59°28' E 024°46'17 3.7
2017-May-19 16:50N 59°45' E 024°48'721.1
2017-May-19 16:30N 59°39' E 024°43'12 6.4
2017-May-19 14:37N 59°27' E 024°47'216.4
2017-May-19 14:30N 59°29' E 024°45'3122.8
2017-May-19 13:07N 60°00' E 024°54'1 0.3
2017-May-19 10:45N 60°01' E 024°55'520.6
2017-May-19 10:30N 59°56' E 024°52'1220.4
2017-May-19 09:55N 59°44' E 024°49'1119.6
2017-May-19 09:22N 59°33' E 024°43'7 4.4
2017-May-19 07:52N 59°27' E 024°46'615.2
2017-May-19 07:30N 59°32' E 024°43'919.1
2017-May-19 07:00N 59°41' E 024°42'1020.4
2017-May-19 06:30N 59°51' E 024°48'1419.7
2017-May-19 05:49N 60°04' E 024°54'3 1.4
2017-May-19 03:23N 60°08' E 024°54'613.5
2017-May-19 02:56N 60°02' E 024°54'713.5
2017-May-19 02:26N 59°55' E 024°53'6 9.7
2017-May-19 01:49N 59°49' E 024°51'18 7.7
2017-May-18 23:25N 59°31' E 024°45'4 2.5
2017-May-18 21:41N 59°27' E 024°46'212.2
2017-May-18 21:30N 59°29' E 024°45'3 0.6
2017-May-18 16:28N 59°32' E 024°44'5 3.3
2017-May-18 14:58N 59°27' E 024°47'4 0.3
2017-May-17 23:29N 59°31' E 024°45'5 2.5
2017-May-17 21:39N 59°27' E 024°47'213.9
2017-May-17 21:29N 59°29' E 024°45'2 0.5
2017-May-17 16:31N 59°31' E 024°45'021.6
2017-May-17 16:30N 59°31' E 024°45'4 2.7
2017-May-17 14:50N 59°27' E 024°46'818.7
2017-May-17 14:25N 59°34' E 024°41'26 3.1
2017-May-17 06:09N 59°59' E 024°54'  

Dump ship's entire track history